createdAt,value
2022-12-23T05:07:00.473Z,100167.31
2022-12-23T05:10:03.200Z,100167.31
2022-12-23T05:13:05.343Z,100168.88
2022-12-23T05:16:07.973Z,100173.41
2022-12-23T05:19:10.617Z,100164.66
2022-12-23T05:22:13.066Z,100176.16
2022-12-23T05:25:15.271Z,100167.56
2022-12-23T05:28:17.680Z,100172.94
2022-12-23T05:31:19.814Z,100178.28
2022-12-23T05:34:22.380Z,100176.37
2022-12-23T05:37:24.482Z,100169.13
2022-12-23T05:40:28.167Z,100168.28
2022-12-23T05:43:35.361Z,100159.88
2022-12-23T05:46:37.938Z,100169.25
2022-12-23T05:49:40.129Z,100170.75
2022-12-23T05:52:42.475Z,100185.78
2022-12-23T05:55:44.614Z,100196.44
2022-12-23T05:58:46.968Z,100199.63
2022-12-23T06:01:49.801Z,100206.31
2022-12-23T06:04:52.238Z,100196.25
2022-12-23T06:07:54.576Z,100191.66
2022-12-23T06:10:57.103Z,100192.34
2022-12-23T06:13:59.182Z,100184.16
2022-12-23T06:17:01.631Z,100187.16
2022-12-23T06:20:04.787Z,100183.09
2022-12-23T06:23:07.256Z,100190.94
2022-12-23T06:26:09.389Z,100184.31
2022-12-23T06:29:11.800Z,100184.34
2022-12-23T06:32:14.309Z,100184.81
2022-12-23T06:35:16.763Z,100183.44
2022-12-23T06:38:18.902Z,100176.81
2022-12-23T06:41:21.245Z,100170.22
2022-12-23T06:44:23.392Z,100172.59
2022-12-23T06:47:25.872Z,100178.19
2022-12-23T06:50:27.970Z,100189.63
2022-12-23T06:53:30.358Z,100187.31
2022-12-23T06:56:35.295Z,100205.00
2022-12-23T06:59:37.697Z,100206.66
2022-12-23T07:02:39.994Z,100208.09
2022-12-23T07:05:42.623Z,100219.16
2022-12-23T07:08:44.718Z,100238.53
2022-12-23T07:11:47.064Z,100238.50
2022-12-23T07:14:49.650Z,100250.25
2022-12-23T07:17:52.024Z,100258.59
2022-12-23T07:20:54.337Z,100251.81
2022-12-23T07:23:56.839Z,100241.41
2022-12-23T07:26:58.948Z,100235.00
2022-12-23T07:30:01.533Z,100232.63
2022-12-23T07:33:03.774Z,100216.09
2022-12-23T07:36:06.660Z,100203.66
2022-12-23T07:39:08.776Z,100208.47
2022-12-23T07:45:33.440Z,100207.78
2022-12-23T07:48:36.262Z,100209.53
2022-12-23T07:51:38.399Z,100203.06
2022-12-23T07:54:40.846Z,100207.09
2022-12-23T07:57:42.951Z,100203.34
2022-12-23T08:00:45.302Z,100205.47
2022-12-23T08:03:48.647Z,100199.97
2022-12-23T08:06:50.803Z,100199.97
2022-12-23T08:09:53.259Z,100200.97
2022-12-23T08:12:55.569Z,100195.59
2022-12-23T08:15:59.432Z,100200.38
2022-12-23T08:19:01.646Z,100194.41
2022-12-23T08:22:04.120Z,100206.94
2022-12-23T08:25:06.863Z,100210.97
2022-12-23T08:28:09.214Z,100194.78
2022-12-23T08:31:17.630Z,100186.88
2022-12-23T08:34:20.051Z,100192.41
2022-12-23T08:37:22.262Z,100189.91
2022-12-23T08:40:24.727Z,100189.53
2022-12-23T08:43:33.571Z,100200.22
2022-12-23T08:46:38.785Z,100205.72
2022-12-23T08:49:41.001Z,100198.31
2022-12-23T08:52:43.480Z,100187.31
2022-12-23T08:55:47.624Z,100182.44
2022-12-23T08:58:55.163Z,100166.59
2022-12-23T09:01:59.668Z,100151.00
2022-12-23T09:05:02.232Z,100159.69
2022-12-23T09:08:04.593Z,100153.56
2022-12-23T09:11:11.694Z,100154.88
2022-12-23T09:14:13.936Z,100164.66
2022-12-23T09:17:17.655Z,100175.06
2022-12-23T09:20:19.791Z,100164.66
2022-12-23T09:23:22.349Z,100167.78
2022-12-23T09:26:27.447Z,100176.16
2022-12-23T09:29:29.798Z,100176.56
2022-12-23T09:32:31.954Z,100177.62
2022-12-23T09:35:34.430Z,100176.56
2022-12-23T09:38:36.723Z,100185.06
2022-12-23T09:42:09.268Z,100166.88
2022-12-23T09:45:40.149Z,100157.00
2022-12-23T09:48:51.074Z,100156.69
2022-12-23T09:52:00.138Z,100147.62
2022-12-23T09:55:02.692Z,100142.22
2022-12-23T09:58:19.719Z,100158.69
2022-12-23T10:01:44.831Z,100165.03
2022-12-23T10:05:09.027Z,100155.22
2022-12-23T10:08:22.700Z,100148.81
2022-12-23T10:11:31.956Z,100138.81
2022-12-23T10:14:36.605Z,100120.69
2022-12-23T10:17:41.734Z,100108.72
2022-12-23T10:20:53.325Z,100120.06
2022-12-23T10:23:55.999Z,100122.63
2022-12-23T10:27:03.600Z,100122.31
2022-12-23T10:30:42.684Z,100110.63
2022-12-23T10:33:57.146Z,100101.44
2022-12-23T10:37:22.115Z,100105.31
2022-12-23T10:41:05.324Z,100087.19
2022-12-23T10:44:38.583Z,100093.25
2022-12-23T10:47:51.637Z,100091.41
2022-12-23T10:51:01.241Z,100082.09
2022-12-23T10:54:12.327Z,100081.88
2022-12-23T10:57:17.273Z,100074.16
2022-12-23T11:00:22.784Z,100072.62
2022-12-23T11:03:36.535Z,100076.81
2022-12-23T11:06:42.601Z,100082.72
2022-12-23T11:10:18.789Z,100082.81
2022-12-23T11:13:42.084Z,100084.91
2022-12-23T11:16:47.352Z,100082.19
2022-12-23T11:20:12.748Z,100082.75
2022-12-23T11:23:36.583Z,100073.94
2022-12-23T11:26:39.343Z,100064.41
2022-12-23T11:29:54.463Z,100061.06
2022-12-23T11:32:57.024Z,100060.78
2022-12-23T11:36:00.782Z,100052.03
2022-12-23T11:39:07.538Z,100059.75
2022-12-23T11:42:17.796Z,100057.59
2022-12-23T11:45:25.569Z,100073.22
2022-12-23T11:48:30.592Z,100078.56
2022-12-23T11:51:32.774Z,100077.31
2022-12-23T11:54:35.194Z,100076.50
2022-12-23T11:57:48.619Z,100074.41
2022-12-23T12:00:58.132Z,100075.72
2022-12-23T12:04:05.482Z,100074.91
2022-12-23T12:07:13.059Z,100077.09
2022-12-23T12:10:21.177Z,100080.87
2022-12-23T12:13:30.545Z,100085.41
2022-12-23T12:16:35.808Z,100092.28
2022-12-23T12:19:48.439Z,100085.56
2022-12-23T12:22:56.081Z,100084.75
2022-12-23T12:26:06.129Z,100090.38
2022-12-23T12:29:31.982Z,100091.37
2022-12-23T12:32:46.687Z,100090.59
2022-12-23T12:36:05.523Z,100092.72
2022-12-23T12:39:19.302Z,100097.50
2022-12-23T12:42:40.191Z,100089.03
2022-12-23T12:45:50.972Z,100077.34
2022-12-23T12:49:06.844Z,100071.94
2022-12-23T12:52:38.931Z,100079.19
2022-12-23T12:55:47.391Z,100074.91
2022-12-23T12:58:50.252Z,100078.38
2022-12-23T13:01:59.334Z,100079.44
2022-12-23T13:05:24.452Z,100086.44
2022-12-23T13:08:48.495Z,100091.22
2022-12-23T13:12:28.872Z,100089.31
2022-12-23T13:15:34.320Z,100080.78
2022-12-23T13:18:42.126Z,100079.75
2022-12-23T13:21:51.532Z,100082.41
2022-12-23T13:25:14.415Z,100083.75
2022-12-23T13:28:35.758Z,100084.53
2022-12-23T13:31:51.439Z,100082.38
2022-12-23T13:35:19.819Z,100084.28
2022-12-23T13:39:05.889Z,100093.88
2022-12-23T13:42:13.749Z,100087.22
2022-12-23T13:45:18.730Z,100088.00
2022-12-23T13:48:38.137Z,100094.69
2022-12-23T13:51:59.072Z,100084.03
2022-12-23T13:55:20.080Z,100091.75
2022-12-23T13:58:26.021Z,100086.44
2022-12-23T14:01:40.472Z,100085.41
2022-12-23T14:04:55.336Z,100076.38
2022-12-23T14:08:03.484Z,100085.97
2022-12-23T14:11:17.059Z,100091.28
2022-12-23T14:14:56.900Z,100095.50
2022-12-23T14:18:29.778Z,100089.66
2022-12-23T14:21:55.846Z,100093.91
2022-12-23T14:25:19.940Z,100098.75
2022-12-23T14:29:14.598Z,100099.53
2022-12-23T14:32:27.071Z,100094.50
2022-12-23T14:35:38.325Z,100095.81
2022-12-23T14:39:13.602Z,100095.03
2022-12-23T14:42:41.255Z,100104.06
2022-12-23T14:45:44.121Z,100108.31
2022-12-23T14:48:46.172Z,100100.88
2022-12-23T14:51:50.870Z,100106.78
2022-12-23T14:55:20.981Z,100100.09
2022-12-23T14:58:18.611Z,100101.69
2022-12-23T15:01:30.325Z,100096.88
2022-12-23T15:04:44.162Z,100100.88
2022-12-23T15:07:46.862Z,100105.66
2022-12-23T15:10:49.882Z,100116.34
2022-12-23T15:13:53.931Z,100129.69
2022-12-23T15:16:56.395Z,100129.66
2022-12-23T15:20:23.396Z,100128.59
2022-12-23T15:23:26.099Z,100130.69
2022-12-23T15:26:31.699Z,100134.75
